Date,TemperatureHighF,TemperatureAvgF,TemperatureLowF,DewpointHighF,DewpointAvgF,DewpointLowF,HumidityHigh,HumidityAvg,HumidityLow,PressureMaxIn,PressureMinIn,WindSpeedMaxMPH,WindSpeedAvgMPH,GustSpeedMaxMPH,PrecipitationSumIn
2013-3-1,29.8,27.2,24.6,29.5,25.9,23.2,100,95,86,30.01,29.87,14,4,15,0.06
2013-3-2,27.2,24.9,23.0,25.5,24.3,21.7,100,97,82,30.00,29.95,13,4,15,0.07
2013-3-3,24.2,21.9,18.6,23.1,19.8,16.0,100,92,80,30.02,29.96,15,3,15,0.07
2013-3-4,35.6,24.7,13.5,29.1,20.3,12.8,99,84,65,30.12,30.02,10,2,10,0.00
2013-3-5,39.7,32.1,23.0,29.6,24.0,20.3,96,73,53,30.07,29.61,20,8,23,0.00
2013-3-6,39.9,33.8,29.6,34.1,32.0,29.6,100,93,75,30.17,29.61,17,6,23,0.00
2013-3-7,38.2,33.1,29.7,34.3,31.9,29.7,100,96,77,30.34,30.15,13,3,15,0.06
2013-3-8,40.3,32.1,24.9,32.7,28.9,24.9,100,89,71,30.45,30.33,14,4,14,0.00
2013-3-9,53.6,38.8,25.0,35.9,31.0,25.0,100,76,44,30.41,30.07,13,4,14,0.00
2013-3-10,67.8,57.0,46.9,40.9,36.1,31.1,65,46,32,30.08,29.86,20,6,20,0.00
2013-3-11,62.7,50.8,40.1,52.4,44.8,36.3,100,83,39,29.87,29.56,24,5,24,1.61
2013-3-12,40.1,34.5,30.7,38.5,32.1,28.8,99,91,79,29.96,29.76,20,2,20,0.59
2013-3-13,31.4,28.1,24.0,30.8,26.0,20.4,100,92,71,30.18,29.89,25,4,26,0.00
2013-3-14,37.2,28.8,21.1,26.6,23.0,18.8,92,79,62,30.24,30.10,20,3,20,0.00
2013-3-15,45.1,37.8,29.7,40.5,32.8,0.0,100,83,71,30.10,29.83,12,2,19,0.11
2013-3-16,40.0,35.0,28.9,40.0,35.0,28.9,100,100,100,30.00,29.64,14,4,14,0.07
2013-3-17,32.8,29.8,27.3,29.9,27.0,23.4,100,90,74,30.18,30.00,12,3,16,0.07
2013-3-18,48.0,36.6,28.0,48.0,35.6,23.3,100,96,82,30.10,29.56,21,4,30,0.69
2013-3-19,37.3,30.4,24.5,36.5,24.8,19.1,98,80,65,29.96,29.71,29,6,33,0.02
2013-3-20,29.9,26.6,19.5,25.3,20.9,16.8,97,79,66,29.96,29.87,17,4,20,0.02
2013-3-21,28.4,22.1,15.0,24.3,18.1,12.5,95,85,75,29.92,29.85,16,5,18,0.04
2013-3-22,38.2,29.9,0.0,26.1,22.9,19.9,92,75,59,30.00,29.91,15,2,17,0.02
2013-3-23,40.4,31.3,23.0,30.0,25.8,22.0,97,81,59,30.04,29.95,13,4,13,0.00
2013-3-24,35.2,30.6,26.4,30.5,25.8,23.8,98,83,66,29.99,29.44,21,7,26,0.00
2013-3-25,33.7,32.0,29.9,33.7,31.8,26.9,100,99,78,29.84,29.37,14,3,15,0.32
2013-3-26,40.8,33.9,30.7,35.2,32.1,27.6,100,93,61,30.10,29.83,17,4,20,0.16
2013-3-27,40.3,35.4,31.5,33.0,30.7,27.5,100,84,61,30.19,30.10,20,4,21,0.02
2013-3-28,44.4,38.0,29.9,34.8,29.9,26.0,86,73,60,30.27,30.18,14,4,16,0.00
2013-3-29,48.4,39.2,31.4,31.5,28.9,27.3,88,68,47,30.27,30.20,15,3,16,0.00
2013-3-30,55.3,43.3,28.7,34.3,29.4,26.3,95,61,34,30.23,29.95,33,2,33,0.00
2013-3-31,52.9,47.6,42.2,47.8,38.5,28.5,96,71,53,29.97,29.69,15,3,18,0.00